Time;durP1;ratioP1;P1;durP2;ratioP2;P2;SDS_P1;SDS_P2;PMS_P1;PMS_P2;Temp;Humidity;BMP_temperature;BMP_pressure;BME280_temperature;BME280_humidity;BME280_pressure;Samples;Min_cycle;Max_cycle;Signal;HPM_P1;HPM_P2
2022/01/24 08:50:44;;;;;;;14.25;8.25;;;;;;;0.06;81.45;102035.88;5007266;28;106008;-76
2022/01/24 08:53:10;;;;;;;13.77;7.78;;;;;;;0.12;81.90;102040.88;5006221;28;106021;-78
2022/01/24 08:55:37;;;;;;;14.23;8.25;;;;;;;0.16;81.77;102038.09;5005291;28;105973;-76
2022/01/24 08:58:05;;;;;;;12.57;6.93;;;;;;;0.26;81.74;102043.84;5005244;28;106399;-74
2022/01/24 09:00:31;;;;;;;17.90;7.97;;;;;;;0.32;82.15;102038.34;5005707;28;105874;-74
2022/01/24 09:02:56;;;;;;;15.40;7.50;;;;;;;0.41;82.04;102041.53;5005571;28;106325;-76
2022/01/24 09:05:23;;;;;;;16.50;8.57;;;;;;;0.56;82.13;102029.59;5003138;28;106279;-76
2022/01/24 09:07:49;;;;;;;22.73;9.10;;;;;;;0.71;82.10;102039.50;5005382;28;106632;-85
2022/01/24 09:10:18;;;;;;;20.95;9.30;;;;;;;0.84;82.04;102032.00;5005318;28;105893;-78
2022/01/24 09:12:43;;;;;;;18.00;9.80;;;;;;;0.93;81.94;102036.00;5004875;28;106091;-79
2022/01/24 09:15:09;;;;;;;16.77;9.13;;;;;;;1.09;82.41;102038.84;5004667;28;105925;-78
2022/01/24 09:17:35;;;;;;;17.98;9.18;;;;;;;1.20;82.06;102036.63;5003649;28;107020;-77
2022/01/24 09:20:00;;;;;;;22.88;10.25;;;;;;;1.28;81.92;102036.31;5004313;28;105746;-77
2022/01/24 09:22:26;;;;;;;18.13;9.82;;;;;;;1.35;81.46;102036.00;5004691;28;105886;-75
2022/01/24 09:24:52;;;;;;;21.13;9.70;;;;;;;1.49;81.66;102021.41;5004816;28;106344;-81
2022/01/24 09:27:17;;;;;;;17.40;10.57;;;;;;;1.65;81.81;102016.34;5004367;28;105829;-80
2022/01/24 09:29:43;;;;;;;17.23;10.65;;;;;;;1.77;81.35;102007.09;5005139;28;105691;-82
2022/01/24 09:32:08;;;;;;;19.13;10.15;;;;;;;1.84;81.34;102005.88;5004627;28;105885;-76
2022/01/24 09:34:34;;;;;;;19.23;9.25;;;;;;;1.93;81.44;102005.47;5004252;28;106223;-74
2022/01/24 09:37:00;;;;;;;19.48;11.05;;;;;;;1.98;81.06;102002.63;5004463;28;106031;-74
2022/01/24 09:39:26;;;;;;;19.60;10.88;;;;;;;2.01;80.92;102005.13;5004144;28;106126;-80
2022/01/24 09:41:53;;;;;;;15.07;9.05;;;;;;;2.00;80.85;102012.16;5005108;28;105968;-75
2022/01/24 09:44:19;;;;;;;20.60;9.98;;;;;;;1.99;80.88;102017.47;5005022;28;106256;-77
2022/01/24 09:46:46;;;;;;;15.45;10.10;;;;;;;2.04;80.49;102010.25;5003868;28;106197;-75
2022/01/24 09:49:12;;;;;;;19.83;8.98;;;;;;;2.07;80.42;102001.38;5003558;28;105854;-76
2022/01/24 09:51:37;;;;;;;15.77;8.32;;;;;;;2.09;80.15;102010.03;5005390;28;105843;-78
2022/01/24 09:54:07;;;;;;;18.50;8.40;;;;;;;2.15;80.28;102000.06;5002981;28;106331;-76
2022/01/24 09:56:34;;;;;;;14.32;8.65;;;;;;;2.37;80.44;101999.06;5001800;28;106032;-79
2022/01/24 09:59:00;;;;;;;16.42;9.00;;;;;;;2.62;80.34;101995.28;5001709;28;106094;-79
2022/01/24 10:01:25;;;;;;;18.17;9.25;;;;;;;2.74;80.26;101999.09;4992711;28;106086;-78
2022/01/24 10:04:11;;;;;;;17.13;8.70;;;;;;;2.74;79.75;101999.09;4988643;28;106165;-82
2022/01/24 10:07:04;;;;;;;22.65;9.35;;;;;;;2.63;79.64;102000.44;4988782;28;106037;-78
2022/01/24 10:09:31;;;;;;;19.35;9.18;;;;;;;2.53;79.54;102000.06;4990619;28;106623;-81
2022/01/24 10:18:03;;;;;;;18.95;11.10;;;;;;;2.42;79.32;101996.22;4990691;28;106425;-73
2022/01/24 10:20:28;;;;;;;17.60;8.98;;;;;;;2.39;79.50;101999.84;4989693;28;105965;-74
2022/01/24 10:23:12;;;;;;;17.80;9.45;;;;;;;2.30;78.91;102001.13;4991594;28;105853;-69
2022/01/24 10:26:00;;;;;;;20.25;10.32;;;;;;;2.17;78.58;102005.25;4990870;28;106047;-70
2022/01/24 10:28:31;;;;;;;17.48;9.13;;;;;;;2.14;79.31;102008.03;4989445;28;105893;-69
2022/01/24 10:31:06;;;;;;;20.30;10.68;;;;;;;2.07;78.81;102002.22;4989969;28;105980;-70
2022/01/24 10:33:48;;;;;;;19.23;10.38;;;;;;;2.08;79.30;102013.56;4990346;28;105976;-73
2022/01/24 10:36:25;;;;;;;18.55;9.20;;;;;;;2.11;79.59;102008.19;4989945;28;105867;-70
2022/01/24 10:38:55;;;;;;;17.08;10.40;;;;;;;2.12;79.58;102015.13;4988852;28;106158;-71
2022/01/24 10:41:24;;;;;;;16.58;10.13;;;;;;;2.02;78.87;102005.06;4989486;28;106060;-70
2022/01/24 10:43:56;;;;;;;18.15;9.25;;;;;;;1.99;79.12;102002.53;4990017;28;105890;-69
2022/01/24 10:46:25;;;;;;;17.75;9.80;;;;;;;2.02;79.21;101997.16;4990020;28;106175;-70
2022/01/24 10:49:01;;;;;;;15.05;8.45;;;;;;;2.05;79.22;102000.56;4989829;28;106075;-69
2022/01/24 10:51:26;;;;;;;17.13;9.82;;;;;;;1.99;79.11;101994.66;4989980;28;105888;-68
2022/01/24 10:53:54;;;;;;;17.23;7.65;;;;;;;1.96;78.93;101989.56;4990469;28;105864;-68
2022/01/24 10:56:25;;;;;;;16.30;9.85;;;;;;;1.97;79.06;101986.00;4989738;28;106103;-73
2022/01/24 10:58:51;;;;;;;21.08;10.23;;;;;;;1.96;79.10;101984.28;4989750;28;106327;-69
2022/01/24 11:01:21;;;;;;;18.88;10.25;;;;;;;2.01;79.21;101987.56;4989125;28;105921;-71
2022/01/24 11:04:00;;;;;;;15.63;9.07;;;;;;;2.11;79.32;101997.66;4990156;28;106021;-66
2022/01/24 11:06:27;;;;;;;19.13;9.18;;;;;;;2.11;78.98;101989.78;4990442;28;106263;-66
2022/01/24 11:09:13;;;;;;;16.88;9.80;;;;;;;2.01;78.87;101987.56;4989466;28;105965;-66
2022/01/24 11:11:38;;;;;;;18.88;9.90;;;;;;;1.93;78.88;101994.97;4989129;28;106104;-68
2022/01/24 11:14:06;;;;;;;16.70;9.27;;;;;;;1.88;78.79;101986.41;4989234;28;106173;-69
2022/01/24 11:16:32;;;;;;;18.10;8.07;;;;;;;1.82;78.51;101984.09;4989514;28;105953;-70
2022/01/24 11:19:00;;;;;;;20.35;10.13;;;;;;;1.76;78.45;101973.84;4989064;28;106021;-71
2022/01/24 11:21:32;;;;;;;17.60;8.85;;;;;;;1.76;78.71;101973.84;4988913;28;106293;-69
2022/01/24 11:24:00;;;;;;;18.73;10.02;;;;;;;1.77;78.92;101978.19;4990427;28;105914;-68
2022/01/24 11:26:26;;;;;;;19.73;9.30;;;;;;;1.80;79.06;101975.41;4989308;28;106444;-69
2022/01/24 11:28:51;;;;;;;18.70;9.05;;;;;;;1.81;78.79;101977.13;4989239;28;105911;-69
2022/01/24 11:31:24;;;;;;;18.02;8.18;;;;;;;1.85;78.69;101971.63;4989356;28;105978;-69
2022/01/24 11:34:13;;;;;;;13.43;6.25;;;;;;;1.86;78.45;101967.25;4990008;28;106210;-64
2022/01/24 11:36:41;;;;;;;15.15;8.23;;;;;;;1.88;78.47;101962.75;4989280;28;106298;-67
2022/01/24 11:39:07;;;;;;;18.30;8.73;;;;;;;1.87;78.22;101963.69;4988903;28;106606;-70
2022/01/24 11:41:35;;;;;;;17.95;9.82;;;;;;;1.91;78.69;101967.88;4989165;28;105814;-71
2022/01/24 11:44:16;;;;;;;23.00;11.15;;;;;;;2.08;78.84;101971.50;4990112;28;106178;-69
2022/01/24 11:46:52;;;;;;;18.42;9.90;;;;;;;2.18;78.48;101972.78;4987485;28;105945;-71
2022/01/24 11:49:24;;;;;;;22.25;11.32;;;;;;;2.27;78.30;101976.75;4989086;28;105948;-72
2022/01/24 11:52:01;;;;;;;19.80;10.32;;;;;;;2.27;77.84;101972.34;4988220;28;105987;-70
2022/01/24 11:57:22;;;;;;;24.25;11.93;;;;;;;2.16;77.43;101977.25;4984795;28;106576;-74
2022/01/24 11:59:49;;;;;;;19.88;11.65;;;;;;;2.08;77.69;101960.97;4988197;28;107249;-74
2022/01/24 12:02:20;;;;;;;22.30;12.55;;;;;;;2.05;78.16;101962.00;4988023;28;106571;-72
2022/01/24 12:04:56;;;;;;;27.70;13.93;;;;;;;2.00;77.81;101959.56;4989348;28;106273;-75
2022/01/24 12:07:21;;;;;;;27.83;13.27;;;;;;;2.05;78.02;101950.63;4988113;28;106191;-76
2022/01/24 12:09:47;;;;;;;23.15;12.82;;;;;;;2.13;78.26;101949.34;4988233;28;105773;-71
2022/01/24 12:12:42;;;;;;;20.60;11.55;;;;;;;2.25;77.70;101947.91;4988197;28;105931;-71
2022/01/24 12:15:10;;;;;;;26.92;12.88;;;;;;;2.35;78.35;101941.28;4988391;28;106643;-71
2022/01/24 12:18:06;;;;;;;24.92;12.63;;;;;;;2.46;78.22;101945.16;4976521;28;106746;-71
2022/01/24 12:20:31;;;;;;;23.25;11.48;;;;;;;2.52;77.97;101942.25;4965289;28;106166;-71
2022/01/24 12:23:19;;;;;;;22.52;12.10;;;;;;;2.55;77.70;101934.19;4967850;28;106094;-70
2022/01/24 12:26:02;;;;;;;22.73;12.18;;;;;;;2.54;77.48;101927.22;4968390;28;106180;-70
2022/01/24 12:28:42;;;;;;;19.60;10.95;;;;;;;2.54;77.16;101943.00;4968062;28;105880;-69
2022/01/24 12:31:10;;;;;;;25.15;12.30;;;;;;;2.55;77.15;101928.94;4967784;28;107009;-71
2022/01/24 12:33:39;;;;;;;25.17;13.15;;;;;;;2.57;77.22;101923.59;4967532;28;106307;-72
2022/01/24 12:36:14;;;;;;;27.50;13.13;;;;;;;2.54;77.00;101920.19;4968204;28;106066;-70
2022/01/24 12:38:44;;;;;;;21.52;12.88;;;;;;;2.56;77.01;101925.38;4968021;28;106368;-72
2022/01/24 12:41:13;;;;;;;28.25;14.25;;;;;;;2.64;77.31;101922.38;4966037;28;107038;-70
2022/01/24 12:43:53;;;;;;;26.13;13.32;;;;;;;2.81;77.92;101924.16;4967706;28;106094;-74
2022/01/24 12:46:27;;;;;;;22.73;12.93;;;;;;;2.87;77.23;101921.19;4968247;28;106195;-75
2022/01/24 12:48:55;;;;;;;31.00;14.00;;;;;;;2.93;77.34;101915.63;4967259;28;106206;-78
2022/01/24 12:51:22;;;;;;;22.90;13.13;;;;;;;2.96;77.73;101918.09;4967492;28;106242;-74
2022/01/24 12:53:50;;;;;;;22.65;13.30;;;;;;;2.96;76.82;101912.84;4967532;28;106493;-76
2022/01/24 12:56:18;;;;;;;24.75;14.20;;;;;;;2.94;76.78;101908.56;4966553;28;106812;-70
2022/01/24 12:58:46;;;;;;;24.48;13.35;;;;;;;2.93;77.03;101901.63;4967889;28;105905;-70
2022/01/24 13:01:23;;;;;;;22.83;13.18;;;;;;;2.89;76.84;101908.81;4966831;28;105994;-69
2022/01/24 13:03:56;;;;;;;33.97;14.57;;;;;;;2.90;77.15;101910.53;4967564;28;106377;-74
2022/01/24 13:06:22;;;;;;;26.02;13.20;;;;;;;2.94;76.65;101900.69;4977638;28;106073;-72
2022/01/24 13:09:10;;;;;;;22.25;13.13;;;;;;;2.94;76.45;101905.94;4987467;28;106173;-74
2022/01/24 13:11:45;;;;;;;24.33;12.50;;;;;;;2.89;76.34;101908.81;4987108;28;106384;-70
2022/01/24 13:14:19;;;;;;;22.70;12.38;;;;;;;2.85;76.27;101905.50;4985932;28;105941;-70
2022/01/24 13:25:05;;;;;;;24.85;12.80;;;;;;;2.57;76.55;101895.53;4983874;28;106343;-71
2022/01/24 13:27:52;;;;;;;23.45;13.07;;;;;;;2.60;76.69;101905.88;4987607;28;106062;-73
2022/01/24 13:30:25;;;;;;;24.20;11.55;;;;;;;2.58;76.47;101889.31;4987474;28;106311;-71
2022/01/24 13:32:52;;;;;;;24.17;11.73;;;;;;;2.59;76.53;101892.81;4986486;28;106372;-71
2022/01/24 13:35:36;;;;;;;26.60;13.38;;;;;;;2.62;77.12;101882.97;4998015;28;106415;-71
2022/01/24 13:38:09;;;;;;;24.35;12.68;;;;;;;2.68;76.73;101885.31;5001529;28;106036;-73
2022/01/24 13:40:42;;;;;;;24.67;13.93;;;;;;;2.71;76.66;101889.56;4998881;28;106067;-72
2022/01/24 13:43:10;;;;;;;26.52;12.57;;;;;;;2.67;76.59;101886.22;4999089;28;106341;-74
2022/01/24 13:45:40;;;;;;;26.60;12.93;;;;;;;2.68;76.58;101884.47;4993226;28;106076;-76
2022/01/24 13:48:16;;;;;;;25.70;13.77;;;;;;;2.67;76.53;101880.97;4990735;28;105863;-74
2022/01/24 13:50:49;;;;;;;23.73;13.20;;;;;;;2.65;76.75;101890.72;4990125;28;106047;-72
2022/01/24 13:53:47;;;;;;;26.65;12.57;;;;;;;2.62;76.43;101890.84;4989365;28;105960;-72
2022/01/24 13:56:35;;;;;;;24.80;13.82;;;;;;;2.52;76.56;101893.09;4984277;28;106200;-70
2022/01/24 13:59:18;;;;;;;25.92;14.70;;;;;;;2.46;76.38;101882.03;4979926;28;106021;-72
2022/01/24 14:02:10;;;;;;;25.75;13.70;;;;;;;2.42;76.82;101876.09;4987053;28;106210;-69
2022/01/24 14:04:52;;;;;;;27.83;14.38;;;;;;;2.31;76.52;101876.59;4988548;28;107050;-74
2022/01/24 14:07:41;;;;;;;34.13;17.17;;;;;;;2.28;76.35;101874.09;4986805;28;106176;-80
2022/01/24 14:10:10;;;;;;;29.77;14.95;;;;;;;2.24;76.96;101874.34;4988046;28;106019;-78
2022/01/24 14:12:47;;;;;;;30.50;15.98;;;;;;;2.19;76.60;101871.94;4991093;28;106373;-73
2022/01/24 14:20:51;;;;;;;32.90;16.60;;;;;;;2.12;77.44;101873.16;4986135;28;106078;-73
2022/01/24 14:23:38;;;;;;;31.45;16.45;;;;;;;2.15;77.53;101868.59;4988983;28;106317;-73
2022/01/24 14:26:15;;;;;;;34.17;17.58;;;;;;;2.22;77.46;101863.91;4986077;28;106192;-72
2022/01/24 14:28:40;;;;;;;30.83;16.58;;;;;;;2.24;77.54;101872.56;4988806;28;105825;-72
2022/01/24 14:31:12;;;;;;;33.10;16.13;;;;;;;2.27;77.57;101866.28;4987846;28;106391;-72
2022/01/24 14:33:37;;;;;;;30.52;15.82;;;;;;;2.24;77.10;101869.09;4986953;28;105958;-73
2022/01/24 14:36:21;;;;;;;31.08;16.95;;;;;;;2.22;77.41;101878.84;4989701;28;106039;-72
2022/01/24 14:38:57;;;;;;;34.67;17.10;;;;;;;2.17;76.76;101873.78;4989167;28;110206;-72
2022/01/24 14:41:45;;;;;;;31.73;16.98;;;;;;;2.13;76.75;101875.72;4989830;28;106043;-72
2022/01/24 14:46:58;;;;;;;32.97;17.17;;;;;;;2.19;77.33;101880.69;4989149;28;105858;-73
2022/01/24 14:49:26;;;;;;;33.25;17.35;;;;;;;2.17;76.95;101879.03;4988268;28;105962;-72
2022/01/24 14:51:59;;;;;;;32.92;16.90;;;;;;;2.17;77.39;101879.03;4990297;28;105866;-72
2022/01/24 14:54:27;;;;;;;35.78;18.45;;;;;;;2.16;77.39;101872.94;4989814;28;106266;-71
2022/01/24 14:56:55;;;;;;;32.03;16.73;;;;;;;2.18;77.54;101870.25;4989298;28;106756;-71
2022/01/24 14:59:22;;;;;;;38.47;18.85;;;;;;;2.19;77.25;101874.59;4989207;28;106036;-73
2022/01/24 15:01:48;;;;;;;29.75;17.25;;;;;;;2.15;77.20;101873.03;4989412;28;105861;-71
2022/01/24 15:04:13;;;;;;;31.95;17.70;;;;;;;2.11;77.16;101876.72;4989333;28;106237;-70
2022/01/24 15:06:39;;;;;;;34.83;18.23;;;;;;;2.12;77.46;101878.41;4988778;28;106231;-71
